Schofield Barracks, Hawaii
Current Conditions -  °F | °C
As of 8:58 PM on Saturday 25 Oct 2014 (Local Time) from PHHI Reporting Station
Clear Clear  
Wind Chill: 72°   Ceiling: Unl
Heat Index: 72°   Visibility: 10mi
Dew Point: 68°   Wind: 1mph
Humidity: 87%   Direction: NA
Pressure: 30.05"   Gusts: NA
Location:  21.5°N, 158.06°W
Report Text: PHHI 260658Z AUTO VRB01KT 10SM CLR 22/20 A3005 RMK AO2 RAB0632E0633DZB0633E0646 SLP165 P0000 T02240202 $
Loading
Personal Weather Stations






























Interactive Weather Map
Tropical Storm Tracking
New forecast layout! Learn more

10-Day Weather Forecast

Advertisements
Track Severe Weather on mobile